sensor_id;sensor_type;location;lat;lon;timestamp;pressure;altitude;pressure_sealevel;temperature;humidity
41712;BME280;27399;51.516;13.670;2023-04-08T00:01:32;100839.31;;;8.92;85.06
41712;BME280;27399;51.516;13.670;2023-04-08T00:03:57;100855.28;;;9.00;84.92
41712;BME280;27399;51.516;13.670;2023-04-08T00:06:23;100846.47;;;9.10;84.33
41712;BME280;27399;51.516;13.670;2023-04-08T00:08:49;100849.97;;;8.97;85.21
41712;BME280;27399;51.516;13.670;2023-04-08T00:11:14;100845.63;;;9.21;84.00
41712;BME280;27399;51.516;13.670;2023-04-08T00:13:40;100846.47;;;9.07;84.63
41712;BME280;27399;51.516;13.670;2023-04-08T00:16:06;100842.03;;;9.05;84.63
41712;BME280;27399;51.516;13.670;2023-04-08T00:18:32;100848.25;;;9.05;84.86
41712;BME280;27399;51.516;13.670;2023-04-08T00:20:57;100850.91;;;9.05;85.03
41712;BME280;27399;51.516;13.670;2023-04-08T00:23:23;100852.66;;;9.03;85.18
41712;BME280;27399;51.516;13.670;2023-04-08T00:25:49;100848.25;;;9.05;84.88
41712;BME280;27399;51.516;13.670;2023-04-08T00:28:15;100847.31;;;8.92;85.08
41712;BME280;27399;51.516;13.670;2023-04-08T00:30:40;100841.09;;;8.95;85.10
41712;BME280;27399;51.516;13.670;2023-04-08T00:33:06;100841.13;;;8.99;85.18
41712;BME280;27399;51.516;13.670;2023-04-08T00:35:32;100848.16;;;8.90;85.77
41712;BME280;27399;51.516;13.670;2023-04-08T00:37:58;100840.19;;;8.91;85.89
41712;BME280;27399;51.516;13.670;2023-04-08T00:40:24;100842.84;;;8.93;85.69
41712;BME280;27399;51.516;13.670;2023-04-08T00:42:49;100839.38;;;9.06;84.71
41712;BME280;27399;51.516;13.670;2023-04-08T00:45:15;100844.69;;;9.05;85.48
41712;BME280;27399;51.516;13.670;2023-04-08T00:47:41;100848.22;;;9.02;85.61
41712;BME280;27399;51.516;13.670;2023-04-08T00:50:08;100844.63;;;8.88;85.37
41712;BME280;27399;51.516;13.670;2023-04-08T00:52:35;100847.34;;;9.03;85.45
41712;BME280;27399;51.516;13.670;2023-04-08T00:55:01;100848.25;;;9.11;85.20
41712;BME280;27399;51.516;13.670;2023-04-08T00:57:27;100844.75;;;9.22;84.70
41712;BME280;27399;51.516;13.670;2023-04-08T00:59:52;100842.91;;;9.07;85.49
41712;BME280;27399;51.516;13.670;2023-04-08T01:02:35;100838.44;;;9.01;85.41
41712;BME280;27399;51.516;13.670;2023-04-08T01:05:11;100842.09;;;9.22;84.60
41712;BME280;27399;51.516;13.670;2023-04-08T01:07:43;100842.94;;;9.08;85.16
41712;BME280;27399;51.516;13.670;2023-04-08T01:10:17;100842.91;;;9.07;85.20
41712;BME280;27399;51.516;13.670;2023-04-08T01:12:52;100847.28;;;8.91;85.93
41712;BME280;27399;51.516;13.670;2023-04-08T01:15:18;100841.16;;;9.13;85.09
41712;BME280;27399;51.516;13.670;2023-04-08T01:17:46;100849.06;;;8.90;86.21
41712;BME280;27399;51.516;13.670;2023-04-08T01:20:13;100849.97;;;9.00;85.78
41712;BME280;27399;51.516;13.670;2023-04-08T01:22:45;100852.66;;;9.02;85.53
41712;BME280;27399;51.516;13.670;2023-04-08T01:25:22;100844.69;;;9.02;85.87
41712;BME280;27399;51.516;13.670;2023-04-08T01:27:48;100842.91;;;9.02;85.62
41712;BME280;27399;51.516;13.670;2023-04-08T01:30:17;100834.97;;;9.10;85.23
41712;BME280;27399;51.516;13.670;2023-04-08T01:32:44;100850.09;;;9.26;84.58
41712;BME280;27399;51.516;13.670;2023-04-08T01:35:11;100846.47;;;9.04;85.48
41712;BME280;27399;51.516;13.670;2023-04-08T01:37:40;100853.47;;;8.88;86.27
41712;BME280;27399;51.516;13.670;2023-04-08T01:40:07;100849.09;;;9.01;85.96
41712;BME280;27399;51.516;13.670;2023-04-08T01:42:34;100848.19;;;8.91;86.30
41712;BME280;27399;51.516;13.670;2023-04-08T01:45:02;100849.91;;;8.83;86.67
41712;BME280;27399;51.516;13.670;2023-04-08T01:47:28;100843.78;;;8.98;85.67
41712;BME280;27399;51.516;13.670;2023-04-08T01:49:55;100843.78;;;9.01;86.04
41712;BME280;27399;51.516;13.670;2023-04-08T01:52:22;100847.28;;;8.94;86.66
41712;BME280;27399;51.516;13.670;2023-04-08T01:54:49;100849.13;;;9.09;85.44
41712;BME280;27399;51.516;13.670;2023-04-08T01:57:27;100849.16;;;9.07;86.02
41712;BME280;27399;51.516;13.670;2023-04-08T01:59:55;100856.19;;;8.97;86.27
41712;BME280;27399;51.516;13.670;2023-04-08T02:02:25;100849.94;;;8.91;86.53
41712;BME280;27399;51.516;13.670;2023-04-08T02:04:53;100848.22;;;9.01;85.79
41712;BME280;27399;51.516;13.670;2023-04-08T02:07:18;100848.22;;;8.99;86.11
41712;BME280;27399;51.516;13.670;2023-04-08T02:09:44;100858.06;;;9.22;85.06
41712;BME280;27399;51.516;13.670;2023-04-08T02:12:10;100857.16;;;9.17;85.15
41712;BME280;27399;51.516;13.670;2023-04-08T02:14:36;100851.81;;;9.13;85.41
41712;BME280;27399;51.516;13.670;2023-04-08T02:17:10;100848.22;;;9.01;85.70
41712;BME280;27399;51.516;13.670;2023-04-08T02:22:18;100849.09;;;8.99;85.52
41712;BME280;27399;51.516;13.670;2023-04-08T02:24:45;100855.34;;;9.06;85.61
41712;BME280;27399;51.516;13.670;2023-04-08T02:27:11;100857.03;;;8.92;86.11
41712;BME280;27399;51.516;13.670;2023-04-08T02:29:39;100856.16;;;8.91;86.28
41712;BME280;27399;51.516;13.670;2023-04-08T02:32:05;100853.50;;;8.93;86.45
41712;BME280;27399;51.516;13.670;2023-04-08T02:34:31;100850.97;;;9.22;85.31
41712;BME280;27399;51.516;13.670;2023-04-08T02:36:57;100857.09;;;9.06;85.71
41712;BME280;27399;51.516;13.670;2023-04-08T02:39:32;100850.91;;;9.10;85.77
41712;BME280;27399;51.516;13.670;2023-04-08T02:41:58;100845.56;;;9.01;85.97
41712;BME280;27399;51.516;13.670;2023-04-08T02:44:24;100852.72;;;9.09;85.51
41712;BME280;27399;51.516;13.670;2023-04-08T02:46:49;100858.03;;;9.15;85.37
41712;BME280;27399;51.516;13.670;2023-04-08T02:49:15;100869.47;;;8.97;86.11
41712;BME280;27399;51.516;13.670;2023-04-08T02:51:41;100861.53;;;9.04;86.33
41712;BME280;27399;51.516;13.670;2023-04-08T02:54:06;100873.03;;;8.99;86.61
41712;BME280;27399;51.516;13.670;2023-04-08T02:56:32;100875.78;;;9.12;85.80
41712;BME280;27399;51.516;13.670;2023-04-08T02:58:57;100879.25;;;8.98;85.97
41712;BME280;27399;51.516;13.670;2023-04-08T03:01:23;100881.91;;;8.97;86.27
41712;BME280;27399;51.516;13.670;2023-04-08T03:03:49;100881.91;;;8.97;86.77
41712;BME280;27399;51.516;13.670;2023-04-08T03:06:14;100881.06;;;9.10;86.16
41712;BME280;27399;51.516;13.670;2023-04-08T03:08:40;100877.47;;;9.02;85.71
41712;BME280;27399;51.516;13.670;2023-04-08T03:11:05;100879.34;;;9.15;85.26
41712;BME280;27399;51.516;13.670;2023-04-08T03:13:31;100880.25;;;9.24;84.99
41712;BME280;27399;51.516;13.670;2023-04-08T03:15:57;100879.34;;;9.15;85.66
41712;BME280;27399;51.516;13.670;2023-04-08T03:18:22;100886.47;;;9.27;85.32
41712;BME280;27399;51.516;13.670;2023-04-08T03:20:48;100883.78;;;9.20;85.62
41712;BME280;27399;51.516;13.670;2023-04-08T03:23:14;100882.72;;;8.88;86.64
41712;BME280;27399;51.516;13.670;2023-04-08T03:25:40;100879.28;;;9.02;86.41
41712;BME280;27399;51.516;13.670;2023-04-08T03:28:06;100879.25;;;9.03;86.41
41712;BME280;27399;51.516;13.670;2023-04-08T03:30:31;100878.31;;;8.92;86.70
41712;BME280;27399;51.516;13.670;2023-04-08T03:32:57;100879.28;;;9.08;86.22
41712;BME280;27399;51.516;13.670;2023-04-08T03:35:23;100874.03;;;9.19;85.89
41712;BME280;27399;51.516;13.670;2023-04-08T03:37:48;100878.47;;;9.15;86.45
41712;BME280;27399;51.516;13.670;2023-04-08T03:40:14;100873.91;;;8.95;87.18
41712;BME280;27399;51.516;13.670;2023-04-08T03:42:40;100871.31;;;9.05;86.63
41712;BME280;27399;51.516;13.670;2023-04-08T03:45:06;100866.88;;;9.04;86.69
41712;BME280;27399;51.516;13.670;2023-04-08T03:47:32;100866.75;;;8.85;87.13
41712;BME280;27399;51.516;13.670;2023-04-08T03:49:57;100871.22;;;8.95;87.44
41712;BME280;27399;51.516;13.670;2023-04-08T03:52:23;100881.97;;;9.12;86.67
41712;BME280;27399;51.516;13.670;2023-04-08T03:54:49;100880.03;;;8.80;87.64
41712;BME280;27399;51.516;13.670;2023-04-08T03:57:15;100880.13;;;8.96;87.44
41712;BME280;27399;51.516;13.670;2023-04-08T03:59:40;100889.00;;;9.01;87.04
41712;BME280;27399;51.516;13.670;2023-04-08T04:02:06;100889.06;;;9.07;86.98
41712;BME280;27399;51.516;13.670;2023-04-08T04:04:32;100888.97;;;8.92;87.37
41712;BME280;27399;51.516;13.670;2023-04-08T04:06:58;100896.97;;;8.96;87.54
41712;BME280;27399;51.516;13.670;2023-04-08T04:09:24;100897.00;;;8.99;87.57
41712;BME280;27399;51.516;13.670;2023-04-08T04:11:49;100903.22;;;9.03;87.37
41712;BME280;27399;51.516;13.670;2023-04-08T04:14:15;100901.44;;;8.99;87.50
41712;BME280;27399;51.516;13.670;2023-04-08T04:16:40;100899.63;;;8.95;87.59
41712;BME280;27399;51.516;13.670;2023-04-08T04:19:06;100903.25;;;9.12;87.08
41712;BME280;27399;51.516;13.670;2023-04-08T04:21:32;100903.25;;;9.09;87.07
41712;BME280;27399;51.516;13.670;2023-04-08T04:23:57;100906.75;;;9.02;87.40
41712;BME280;27399;51.516;13.670;2023-04-08T04:26:23;100908.47;;;8.89;87.76
41712;BME280;27399;51.516;13.670;2023-04-08T04:28:48;100908.63;;;9.19;86.42
41712;BME280;27399;51.516;13.670;2023-04-08T04:31:21;100920.06;;;9.01;87.07
41712;BME280;27399;51.516;13.670;2023-04-08T04:33:48;100929.06;;;9.27;86.19
41712;BME280;27399;51.516;13.670;2023-04-08T04:36:14;100930.75;;;9.08;87.18
41712;BME280;27399;51.516;13.670;2023-04-08T04:38:40;100926.28;;;9.04;87.03
41712;BME280;27399;51.516;13.670;2023-04-08T04:41:07;100919.19;;;9.03;87.66
41712;BME280;27399;51.516;13.670;2023-04-08T04:43:33;100929.81;;;9.03;88.11
41712;BME280;27399;51.516;13.670;2023-04-08T04:45:58;100929.88;;;9.12;87.26
41712;BME280;27399;51.516;13.670;2023-04-08T04:48:25;100934.16;;;8.86;88.34
41712;BME280;27399;51.516;13.670;2023-04-08T04:50:58;100934.22;;;8.99;88.43
41712;BME280;27399;51.516;13.670;2023-04-08T04:53:24;100937.72;;;8.88;88.68
41712;BME280;27399;51.516;13.670;2023-04-08T04:55:50;100931.56;;;8.95;88.60
41712;BME280;27399;51.516;13.670;2023-04-08T04:58:16;100936.78;;;8.81;89.20
41712;BME280;27399;51.516;13.670;2023-04-08T05:00:42;100934.28;;;9.07;88.27
41712;BME280;27399;51.516;13.670;2023-04-08T05:03:08;100939.59;;;9.04;88.71
41712;BME280;27399;51.516;13.670;2023-04-08T05:05:33;100941.38;;;9.10;88.46
41712;BME280;27399;51.516;13.670;2023-04-08T05:08:00;100942.28;;;9.13;88.46
41712;BME280;27399;51.516;13.670;2023-04-08T05:10:25;100941.53;;;9.35;87.18
41712;BME280;27399;51.516;13.670;2023-04-08T05:12:51;100948.56;;;9.19;87.99
41712;BME280;27399;51.516;13.670;2023-04-08T05:15:17;100942.34;;;9.23;87.93
41712;BME280;27399;51.516;13.670;2023-04-08T05:17:42;100949.47;;;9.28;87.69
41712;BME280;27399;51.516;13.670;2023-04-08T05:20:08;100951.03;;;8.95;88.66
41712;BME280;27399;51.516;13.670;2023-04-08T05:22:34;100957.34;;;9.10;88.77
41712;BME280;27399;51.516;13.670;2023-04-08T05:24:59;100944.97;;;9.12;88.95
41712;BME280;27399;51.516;13.670;2023-04-08T05:27:25;100954.75;;;9.19;88.42
41712;BME280;27399;51.516;13.670;2023-04-08T05:29:51;100967.22;;;9.28;87.95
41712;BME280;27399;51.516;13.670;2023-04-08T05:32:18;100965.47;;;9.30;87.92
41712;BME280;27399;51.516;13.670;2023-04-08T05:34:46;100975.25;;;9.33;88.44
41712;BME280;27399;51.516;13.670;2023-04-08T05:37:12;100962.75;;;9.22;89.27
41712;BME280;27399;51.516;13.670;2023-04-08T05:39:37;100975.25;;;9.39;88.00
41712;BME280;27399;51.516;13.670;2023-04-08T05:42:03;100977.94;;;9.43;87.89
41712;BME280;27399;51.516;13.670;2023-04-08T05:44:29;100985.94;;;9.42;87.79
41712;BME280;27399;51.516;13.670;2023-04-08T05:46:54;100984.19;;;9.50;87.78
41712;BME280;27399;51.516;13.670;2023-04-08T05:49:22;100989.44;;;9.35;88.57
41712;BME280;27399;51.516;13.670;2023-04-08T05:51:48;100985.88;;;9.33;88.84
41712;BME280;27399;51.516;13.670;2023-04-08T05:54:13;100984.16;;;9.42;88.07
41712;BME280;27399;51.516;13.670;2023-04-08T05:56:39;100981.47;;;9.35;88.56
41712;BME280;27399;51.516;13.670;2023-04-08T05:59:05;100989.41;;;9.28;89.37
41712;BME280;27399;51.516;13.670;2023-04-08T06:01:30;100988.56;;;9.31;89.49
41712;BME280;27399;51.516;13.670;2023-04-08T06:03:56;100989.38;;;9.22;89.53
41712;BME280;27399;51.516;13.670;2023-04-08T06:06:22;100993.00;;;9.35;89.34
41712;BME280;27399;51.516;13.670;2023-04-08T06:08:47;100991.28;;;9.45;88.65
41712;BME280;27399;51.516;13.670;2023-04-08T06:11:13;100993.06;;;9.48;89.18
41712;BME280;27399;51.516;13.670;2023-04-08T06:13:39;101004.63;;;9.50;89.62
41712;BME280;27399;51.516;13.670;2023-04-08T06:16:15;101001.09;;;9.57;89.40
41712;BME280;27399;51.516;13.670;2023-04-08T06:18:41;101009.16;;;9.74;87.93
41712;BME280;27399;51.516;13.670;2023-04-08T06:21:07;101010.97;;;9.80;88.12
41712;BME280;27399;51.516;13.670;2023-04-08T06:23:34;101016.31;;;9.84;88.03
41712;BME280;27399;51.516;13.670;2023-04-08T06:25:59;101016.31;;;9.83;88.61
41712;BME280;27399;51.516;13.670;2023-04-08T06:28:25;101018.13;;;9.95;88.09
41712;BME280;27399;51.516;13.670;2023-04-08T06:30:50;101026.13;;;9.93;87.59
41712;BME280;27399;51.516;13.670;2023-04-08T06:33:16;101027.00;;;9.98;87.46
41712;BME280;27399;51.516;13.670;2023-04-08T06:35:42;101026.13;;;9.93;87.84
41712;BME280;27399;51.516;13.670;2023-04-08T06:38:07;101026.09;;;9.96;88.10
41712;BME280;27399;51.516;13.670;2023-04-08T06:40:33;101042.06;;;9.87;88.20
41712;BME280;27399;51.516;13.670;2023-04-08T06:42:58;101044.78;;;9.99;88.29
41712;BME280;27399;51.516;13.670;2023-04-08T06:45:24;101035.91;;;10.02;88.62
41712;BME280;27399;51.516;13.670;2023-04-08T06:47:50;101045.59;;;9.86;89.37
41712;BME280;27399;51.516;13.670;2023-04-08T06:50:16;101043.06;;;10.11;88.13
41712;BME280;27399;51.516;13.670;2023-04-08T06:52:42;101051.91;;;10.06;88.82
41712;BME280;27399;51.516;13.670;2023-04-08T06:55:08;101051.06;;;10.14;88.73
41712;BME280;27399;51.516;13.670;2023-04-08T07:00:55;101067.97;;;10.17;88.40
41712;BME280;27399;51.516;13.670;2023-04-08T07:03:22;101068.84;;;10.19;88.42
41712;BME280;27399;51.516;13.670;2023-04-08T07:05:48;101068.88;;;10.32;88.32
41712;BME280;27399;51.516;13.670;2023-04-08T07:11:34;101070.66;;;10.31;88.23
41712;BME280;27399;51.516;13.670;2023-04-08T07:14:00;101068.84;;;10.27;88.97
41712;BME280;27399;51.516;13.670;2023-04-08T07:16:26;101069.84;;;10.46;87.78
41712;BME280;27399;51.516;13.670;2023-04-08T07:18:51;101067.06;;;10.20;88.98
41712;BME280;27399;51.516;13.670;2023-04-08T07:21:17;101071.53;;;10.27;88.50
41712;BME280;27399;51.516;13.670;2023-04-08T07:23:42;101054.66;;;10.28;88.12
41712;BME280;27399;51.516;13.670;2023-04-08T07:26:08;101081.34;;;10.36;88.31
41712;BME280;27399;51.516;13.670;2023-04-08T07:28:34;101081.41;;;10.59;87.92
41712;BME280;27399;51.516;13.670;2023-04-08T07:31:13;101083.22;;;10.62;87.49
41712;BME280;27399;51.516;13.670;2023-04-08T07:33:39;101090.34;;;10.58;87.84
41712;BME280;27399;51.516;13.670;2023-04-08T07:36:05;101081.41;;;10.54;87.25
41712;BME280;27399;51.516;13.670;2023-04-08T07:38:31;101079.66;;;10.61;87.86
41712;BME280;27399;51.516;13.670;2023-04-08T07:40:56;101090.34;;;10.67;86.42
41712;BME280;27399;51.516;13.670;2023-04-08T07:43:22;101089.44;;;10.62;87.12
41712;BME280;27399;51.516;13.670;2023-04-08T07:45:48;101085.03;;;10.77;86.61
41712;BME280;27399;51.516;13.670;2023-04-08T07:48:13;101091.25;;;10.82;86.96
41712;BME280;27399;51.516;13.670;2023-04-08T07:50:39;101089.47;;;10.90;86.88
41712;BME280;27399;51.516;13.670;2023-04-08T07:53:04;101098.38;;;10.89;86.24
41712;BME280;27399;51.516;13.670;2023-04-08T07:55:33;101097.47;;;10.90;85.71
41712;BME280;27399;51.516;13.670;2023-04-08T07:57:59;101097.50;;;10.99;84.94
41712;BME280;27399;51.516;13.670;2023-04-08T08:00:26;101101.06;;;10.98;84.08
41712;BME280;27399;51.516;13.670;2023-04-08T08:02:51;101101.94;;;11.07;83.16
41712;BME280;27399;51.516;13.670;2023-04-08T08:05:17;101105.50;;;11.18;82.86
41712;BME280;27399;51.516;13.670;2023-04-08T08:07:43;101101.94;;;11.24;82.89
41712;BME280;27399;51.516;13.670;2023-04-08T08:10:09;101107.28;;;11.30;80.81
41712;BME280;27399;51.516;13.670;2023-04-08T08:12:35;101104.59;;;11.25;78.36
41712;BME280;27399;51.516;13.670;2023-04-08T08:15:01;101109.94;;;11.35;79.03
41712;BME280;27399;51.516;13.670;2023-04-08T08:17:27;101110.84;;;11.32;79.28
41712;BME280;27399;51.516;13.670;2023-04-08T08:19:55;101113.50;;;11.52;79.43
41712;BME280;27399;51.516;13.670;2023-04-08T08:22:21;101117.09;;;11.25;78.25
41712;BME280;27399;51.516;13.670;2023-04-08T08:24:47;101117.06;;;11.36;78.38
41712;BME280;27399;51.516;13.670;2023-04-08T08:27:12;101122.41;;;11.23;79.11
41712;BME280;27399;51.516;13.670;2023-04-08T08:29:38;101116.19;;;11.04;77.77
41712;BME280;27399;51.516;13.670;2023-04-08T08:32:04;101123.28;;;11.50;78.71
41712;BME280;27399;51.516;13.670;2023-04-08T08:34:29;101123.28;;;11.47;78.92
41712;BME280;27399;51.516;13.670;2023-04-08T08:36:56;101125.09;;;11.42;79.79
41712;BME280;27399;51.516;13.670;2023-04-08T08:39:21;101131.28;;;11.44;78.88
41712;BME280;27399;51.516;13.670;2023-04-08T08:41:47;101129.50;;;11.58;76.39
41712;BME280;27399;51.516;13.670;2023-04-08T08:44:13;101135.75;;;11.53;77.84
41712;BME280;27399;51.516;13.670;2023-04-08T08:46:46;101130.41;;;11.56;78.28
41712;BME280;27399;51.516;13.670;2023-04-08T08:49:12;101140.19;;;11.54;78.21
41712;BME280;27399;51.516;13.670;2023-04-08T08:51:39;101141.97;;;11.52;77.26
41712;BME280;27399;51.516;13.670;2023-04-08T08:54:05;101140.22;;;11.52;79.75
41712;BME280;27399;51.516;13.670;2023-04-08T08:56:32;101143.72;;;11.76;77.96
41712;BME280;27399;51.516;13.670;2023-04-08T08:58:58;101149.09;;;11.70;77.62
41712;BME280;27399;51.516;13.670;2023-04-08T09:01:33;101149.97;;;11.75;79.22
41712;BME280;27399;51.516;13.670;2023-04-08T09:04:16;101158.91;;;11.58;78.01
41712;BME280;27399;51.516;13.670;2023-04-08T09:06:49;101149.97;;;11.81;77.58
41712;BME280;27399;51.516;13.670;2023-04-08T09:09:18;101158.84;;;11.82;77.26
41712;BME280;27399;51.516;13.670;2023-04-08T09:11:45;101160.66;;;11.98;76.44
41712;BME280;27399;51.516;13.670;2023-04-08T09:14:18;101163.31;;;11.78;78.16
41712;BME280;27399;51.516;13.670;2023-04-08T09:16:44;101161.56;;;11.83;78.10
41712;BME280;27399;51.516;13.670;2023-04-08T09:19:10;101166.88;;;11.77;77.25
41712;BME280;27399;51.516;13.670;2023-04-08T09:21:37;101167.75;;;11.98;77.11
41712;BME280;27399;51.516;13.670;2023-04-08T09:24:05;101168.69;;;11.84;78.28
41712;BME280;27399;51.516;13.670;2023-04-08T09:26:31;101175.78;;;11.90;78.53
41712;BME280;27399;51.516;13.670;2023-04-08T09:29:03;101175.78;;;11.87;78.36
41712;BME280;27399;51.516;13.670;2023-04-08T09:31:31;101170.44;;;11.91;78.52
41712;BME280;27399;51.516;13.670;2023-04-08T09:33:59;101166.88;;;11.96;78.10
41712;BME280;27399;51.516;13.670;2023-04-08T09:36:26;101174.00;;;12.03;77.15
41712;BME280;27399;51.516;13.670;2023-04-08T09:38:53;101175.78;;;12.01;78.31
41712;BME280;27399;51.516;13.670;2023-04-08T09:41:22;101172.16;;;12.17;77.77
41712;BME280;27399;51.516;13.670;2023-04-08T09:43:55;101181.13;;;11.94;75.70
41712;BME280;27399;51.516;13.670;2023-04-08T09:49:10;101184.72;;;12.06;77.04
41712;BME280;27399;51.516;13.670;2023-04-08T09:51:45;101182.91;;;11.94;76.14
41712;BME280;27399;51.516;13.670;2023-04-08T09:54:14;101175.78;;;11.98;74.82
41712;BME280;27399;51.516;13.670;2023-04-08T09:56:48;101181.13;;;11.96;76.13
41712;BME280;27399;51.516;13.670;2023-04-08T09:59:16;101179.31;;;12.15;74.92
41712;BME280;27399;51.516;13.670;2023-04-08T10:01:51;101191.81;;;11.91;73.07
41712;BME280;27399;51.516;13.670;2023-04-08T10:04:20;101185.59;;;11.99;71.92
41712;BME280;27399;51.516;13.670;2023-04-08T10:07:03;101185.59;;;12.02;73.07
41712;BME280;27399;51.516;13.670;2023-04-08T10:09:29;101190.91;;;12.14;73.30
41712;BME280;27399;51.516;13.670;2023-04-08T10:11:57;101183.78;;;12.02;74.70
41712;BME280;27399;51.516;13.670;2023-04-08T10:14:22;101184.66;;;12.18;75.40
41712;BME280;27399;51.516;13.670;2023-04-08T10:17:42;101186.44;;;12.26;75.78
41712;BME280;27399;51.516;13.670;2023-04-08T10:19:43;101188.22;;;12.23;75.58
41712;BME280;27399;51.516;13.670;2023-04-08T10:27:40;101185.50;;;12.30;75.99
41712;BME280;27399;51.516;13.670;2023-04-08T10:32:52;101193.53;;;12.25;75.50
41712;BME280;27399;51.516;13.670;2023-04-08T10:35:42;101199.78;;;12.27;75.42
41712;BME280;27399;51.516;13.670;2023-04-08T10:38:08;101211.38;;;12.24;74.93
41712;BME280;27399;51.516;13.670;2023-04-08T10:40:38;101213.16;;;12.19;74.92
41712;BME280;27399;51.516;13.670;2023-04-08T10:43:05;101223.03;;;11.83;74.20
41712;BME280;27399;51.516;13.670;2023-04-08T10:45:31;101210.53;;;12.07;73.47
41712;BME280;27399;51.516;13.670;2023-04-08T10:51:44;101221.22;;;12.13;74.69
41712;BME280;27399;51.516;13.670;2023-04-08T10:54:29;101220.31;;;11.94;75.08
41712;BME280;27399;51.516;13.670;2023-04-08T10:56:55;101217.66;;;12.14;73.71
41712;BME280;27399;51.516;13.670;2023-04-08T10:59:28;101216.75;;;11.90;74.98
41712;BME280;27399;51.516;13.670;2023-04-08T11:01:55;101226.56;;;11.93;73.96
41712;BME280;27399;51.516;13.670;2023-04-08T11:04:20;101229.25;;;12.01;73.07
41712;BME280;27399;51.516;13.670;2023-04-08T11:06:48;101236.38;;;11.89;74.16
41712;BME280;27399;51.516;13.670;2023-04-08T11:09:14;101229.25;;;11.76;73.45
41712;BME280;27399;51.516;13.670;2023-04-08T11:11:42;101240.81;;;11.83;72.42
41712;BME280;27399;51.516;13.670;2023-04-08T11:14:08;101233.72;;;11.74;72.68
41712;BME280;27399;51.516;13.670;2023-04-08T11:16:36;101240.84;;;11.64;71.39
41712;BME280;27399;51.516;13.670;2023-04-08T11:19:03;101243.50;;;11.89;71.29
41712;BME280;27399;51.516;13.670;2023-04-08T11:21:35;101246.19;;;11.67;71.82
41712;BME280;27399;51.516;13.670;2023-04-08T11:24:06;101249.72;;;11.68;71.41
41712;BME280;27399;51.516;13.670;2023-04-08T11:26:32;101247.94;;;11.91;71.79
41712;BME280;27399;51.516;13.670;2023-04-08T11:28:58;101247.94;;;11.85;71.20
41712;BME280;27399;51.516;13.670;2023-04-08T11:31:25;101248.84;;;11.72;70.58
41712;BME280;27399;51.516;13.670;2023-04-08T11:33:53;101259.53;;;11.81;70.90
41712;BME280;27399;51.516;13.670;2023-04-08T11:36:20;101254.19;;;11.84;71.46
41712;BME280;27399;51.516;13.670;2023-04-08T11:38:46;101255.94;;;11.54;71.25
41712;BME280;27399;51.516;13.670;2023-04-08T11:41:12;101258.66;;;11.77;71.01
41712;BME280;27399;51.516;13.670;2023-04-08T11:43:38;101257.78;;;11.69;70.89
41712;BME280;27399;51.516;13.670;2023-04-08T11:46:11;101261.31;;;11.76;71.04
41712;BME280;27399;51.516;13.670;2023-04-08T11:48:38;101261.34;;;11.77;71.75
41712;BME280;27399;51.516;13.670;2023-04-08T11:51:05;101253.28;;;11.81;70.57
41712;BME280;27399;51.516;13.670;2023-04-08T11:53:34;101255.97;;;11.70;71.27
41712;BME280;27399;51.516;13.670;2023-04-08T11:56:19;101263.97;;;11.67;70.00
41712;BME280;27399;51.516;13.670;2023-04-08T11:58:46;101265.75;;;11.77;70.10
41712;BME280;27399;51.516;13.670;2023-04-08T12:01:12;101259.53;;;11.75;69.60
41712;BME280;27399;51.516;13.670;2023-04-08T12:03:38;101272.00;;;11.79;70.26
41712;BME280;27399;51.516;13.670;2023-04-08T12:06:03;101270.22;;;11.78;70.19
41712;BME280;27399;51.516;13.670;2023-04-08T12:08:33;101266.66;;;11.87;69.60
41712;BME280;27399;51.516;13.670;2023-04-08T12:10:59;101270.22;;;11.66;69.93
41712;BME280;27399;51.516;13.670;2023-04-08T12:13:25;101271.09;;;11.63;69.45
41712;BME280;27399;51.516;13.670;2023-04-08T12:15:51;101272.00;;;11.67;70.44
41712;BME280;27399;51.516;13.670;2023-04-08T12:18:17;101263.09;;;11.89;69.29
41712;BME280;27399;51.516;13.670;2023-04-08T12:20:43;101275.59;;;12.04;70.09
41712;BME280;27399;51.516;13.670;2023-04-08T12:23:08;101264.88;;;11.87;70.45
41712;BME280;27399;51.516;13.670;2023-04-08T12:25:34;101280.88;;;11.38;68.88
41712;BME280;27399;51.516;13.670;2023-04-08T12:27:59;101283.59;;;11.78;70.08
41712;BME280;27399;51.516;13.670;2023-04-08T12:30:25;101278.25;;;11.80;69.78
41712;BME280;27399;51.516;13.670;2023-04-08T12:32:51;101288.94;;;11.67;70.04
41712;BME280;27399;51.516;13.670;2023-04-08T12:35:19;101288.03;;;11.71;69.92
41712;BME280;27399;51.516;13.670;2023-04-08T12:37:45;101289.81;;;11.52;70.20
41712;BME280;27399;51.516;13.670;2023-04-08T12:40:11;101293.38;;;11.70;70.13
41712;BME280;27399;51.516;13.670;2023-04-08T12:42:36;101291.63;;;11.84;69.78
41712;BME280;27399;51.516;13.670;2023-04-08T12:45:02;101284.47;;;11.71;69.40
41712;BME280;27399;51.516;13.670;2023-04-08T12:47:28;101285.38;;;11.70;70.58
41712;BME280;27399;51.516;13.670;2023-04-08T12:49:54;101283.56;;;11.41;70.34
41712;BME280;27399;51.516;13.670;2023-04-08T12:52:19;101280.00;;;11.81;70.40
41712;BME280;27399;51.516;13.670;2023-04-08T12:54:45;101288.97;;;11.98;69.66
41712;BME280;27399;51.516;13.670;2023-04-08T12:57:11;101280.91;;;11.87;70.27
41712;BME280;27399;51.516;13.670;2023-04-08T12:59:37;101285.41;;;11.98;69.39
41712;BME280;27399;51.516;13.670;2023-04-08T13:02:04;101283.59;;;11.81;70.05
41712;BME280;27399;51.516;13.670;2023-04-08T13:04:29;101278.25;;;11.78;68.04
41712;BME280;27399;51.516;13.670;2023-04-08T13:06:55;101280.03;;;12.10;69.47
41712;BME280;27399;51.516;13.670;2023-04-08T13:09:21;101279.13;;;11.89;68.32